sensor_id;sensor_type;location;lat;lon;timestamp;P1;P2;P0
69205;PMS7003;56319;48.920;2.332;2023-05-10T00:01:20;1.50;1.50;1.00
69205;PMS7003;56319;48.920;2.332;2023-05-10T00:03:46;1.00;1.00;1.00
69205;PMS7003;56319;48.920;2.332;2023-05-10T00:06:11;1.00;1.00;1.00
69205;PMS7003;56319;48.920;2.332;2023-05-10T00:08:37;0.00;0.00;0.00
69205;PMS7003;56319;48.920;2.332;2023-05-10T00:11:03;1.00;1.00;1.00
69205;PMS7003;56319;48.920;2.332;2023-05-10T00:13:28;0.75;0.75;0.75
69205;PMS7003;56319;48.920;2.332;2023-05-10T00:15:54;1.00;1.00;1.00
69205;PMS7003;56319;48.920;2.332;2023-05-10T00:18:19;0.50;0.50;0.50
69205;PMS7003;56319;48.920;2.332;2023-05-10T00:20:45;0.50;0.50;0.50
69205;PMS7003;56319;48.920;2.332;2023-05-10T00:23:12;1.00;1.00;1.00
69205;PMS7003;56319;48.920;2.332;2023-05-10T00:25:37;1.00;1.00;1.00
69205;PMS7003;56319;48.920;2.332;2023-05-10T00:28:02;1.25;1.25;1.00
69205;PMS7003;56319;48.920;2.332;2023-05-10T00:30:28;1.00;1.00;1.00
69205;PMS7003;56319;48.920;2.332;2023-05-10T00:32:53;1.00;1.00;1.00
69205;PMS7003;56319;48.920;2.332;2023-05-10T00:35:19;3.00;1.00;1.00
69205;PMS7003;56319;48.920;2.332;2023-05-10T00:37:45;0.75;0.75;0.75
69205;PMS7003;56319;48.920;2.332;2023-05-10T00:40:10;0.25;0.25;0.25
69205;PMS7003;56319;48.920;2.332;2023-05-10T00:42:36;1.00;1.00;0.25
69205;PMS7003;56319;48.920;2.332;2023-05-10T00:45:02;0.50;0.50;0.50
69205;PMS7003;56319;48.920;2.332;2023-05-10T00:47:27;1.75;1.00;1.00
69205;PMS7003;56319;48.920;2.332;2023-05-10T00:49:53;4.00;1.00;1.00
69205;PMS7003;56319;48.920;2.332;2023-05-10T00:52:20;0.75;0.75;0.75
69205;PMS7003;56319;48.920;2.332;2023-05-10T00:54:48;2.00;0.50;0.50
69205;PMS7003;56319;48.920;2.332;2023-05-10T00:57:15;1.00;1.00;0.00
69205;PMS7003;56319;48.920;2.332;2023-05-10T00:59:40;0.00;0.00;0.00
69205;PMS7003;56319;48.920;2.332;2023-05-10T01:02:06;2.00;1.00;1.00
69205;PMS7003;56319;48.920;2.332;2023-05-10T01:04:31;1.00;1.00;1.00
69205;PMS7003;56319;48.920;2.332;2023-05-10T01:06:58;1.00;1.00;1.00
69205;PMS7003;56319;48.920;2.332;2023-05-10T01:09:24;1.00;1.00;0.75
69205;PMS7003;56319;48.920;2.332;2023-05-10T01:11:51;1.25;1.00;1.00
69205;PMS7003;56319;48.920;2.332;2023-05-10T01:14:17;0.25;0.25;0.00
69205;PMS7003;56319;48.920;2.332;2023-05-10T01:16:45;1.00;1.00;1.00
69205;PMS7003;56319;48.920;2.332;2023-05-10T01:19:17;0.00;0.00;0.00
69205;PMS7003;56319;48.920;2.332;2023-05-10T01:21:51;0.50;0.50;0.25
69205;PMS7003;56319;48.920;2.332;2023-05-10T01:24:34;1.00;0.00;0.00
69205;PMS7003;56319;48.920;2.332;2023-05-10T01:30:08;0.50;0.50;0.00
69205;PMS7003;56319;48.920;2.332;2023-05-10T01:32:57;1.00;0.75;0.75
69205;PMS7003;56319;48.920;2.332;2023-05-10T01:35:36;1.75;0.75;0.75
69205;PMS7003;56319;48.920;2.332;2023-05-10T01:38:13;0.75;0.75;0.75
69205;PMS7003;56319;48.920;2.332;2023-05-10T01:43:42;0.25;0.25;0.00
69205;PMS7003;56319;48.920;2.332;2023-05-10T01:46:16;0.00;0.00;0.00
69205;PMS7003;56319;48.920;2.332;2023-05-10T01:48:47;0.50;0.25;0.25
69205;PMS7003;56319;48.920;2.332;2023-05-10T01:51:15;0.75;0.50;0.50
69205;PMS7003;56319;48.920;2.332;2023-05-10T01:53:45;0.50;0.50;0.00
69205;PMS7003;56319;48.920;2.332;2023-05-10T01:56:12;1.00;1.00;0.75
69205;PMS7003;56319;48.920;2.332;2023-05-10T01:58:40;0.00;0.00;0.00
69205;PMS7003;56319;48.920;2.332;2023-05-10T02:01:11;1.00;0.50;0.25
69205;PMS7003;56319;48.920;2.332;2023-05-10T02:03:38;1.50;0.00;0.00
69205;PMS7003;56319;48.920;2.332;2023-05-10T02:06:06;1.00;0.00;0.00
69205;PMS7003;56319;48.920;2.332;2023-05-10T02:08:34;0.00;0.00;0.00
69205;PMS7003;56319;48.920;2.332;2023-05-10T02:11:02;0.50;0.50;0.50
69205;PMS7003;56319;48.920;2.332;2023-05-10T02:13:32;0.00;0.00;0.00
69205;PMS7003;56319;48.920;2.332;2023-05-10T02:16:01;1.00;1.00;1.00
69205;PMS7003;56319;48.920;2.332;2023-05-10T02:18:30;0.00;0.00;0.00
69205;PMS7003;56319;48.920;2.332;2023-05-10T02:20:58;1.00;1.00;0.00
69205;PMS7003;56319;48.920;2.332;2023-05-10T02:23:25;0.25;0.00;0.00
69205;PMS7003;56319;48.920;2.332;2023-05-10T02:25:51;0.50;0.50;0.50
69205;PMS7003;56319;48.920;2.332;2023-05-10T02:28:20;0.50;0.50;0.00
69205;PMS7003;56319;48.920;2.332;2023-05-10T02:30:48;0.25;0.00;0.00
69205;PMS7003;56319;48.920;2.332;2023-05-10T02:33:15;0.00;0.00;0.00
69205;PMS7003;56319;48.920;2.332;2023-05-10T02:35:42;1.75;0.00;0.00
69205;PMS7003;56319;48.920;2.332;2023-05-10T02:38:07;0.25;0.25;0.00
69205;PMS7003;56319;48.920;2.332;2023-05-10T02:40:35;0.00;0.00;0.00
69205;PMS7003;56319;48.920;2.332;2023-05-10T02:43:02;0.00;0.00;0.00
69205;PMS7003;56319;48.920;2.332;2023-05-10T02:45:31;0.00;0.00;0.00
69205;PMS7003;56319;48.920;2.332;2023-05-10T02:47:58;0.00;0.00;0.00
69205;PMS7003;56319;48.920;2.332;2023-05-10T02:50:25;1.00;0.00;0.00
69205;PMS7003;56319;48.920;2.332;2023-05-10T02:52:54;0.75;0.75;0.75
69205;PMS7003;56319;48.920;2.332;2023-05-10T02:55:25;0.00;0.00;0.00
69205;PMS7003;56319;48.920;2.332;2023-05-10T02:57:58;0.00;0.00;0.00
69205;PMS7003;56319;48.920;2.332;2023-05-10T03:00:25;0.00;0.00;0.00
69205;PMS7003;56319;48.920;2.332;2023-05-10T03:02:51;0.00;0.00;0.00
69205;PMS7003;56319;48.920;2.332;2023-05-10T03:05:17;0.00;0.00;0.00
69205;PMS7003;56319;48.920;2.332;2023-05-10T03:07:43;1.75;0.00;0.00
69205;PMS7003;56319;48.920;2.332;2023-05-10T03:10:09;1.00;0.25;0.25
69205;PMS7003;56319;48.920;2.332;2023-05-10T03:12:47;0.00;0.00;0.00
69205;PMS7003;56319;48.920;2.332;2023-05-10T03:15:42;0.00;0.00;0.00
69205;PMS7003;56319;48.920;2.332;2023-05-10T03:18:18;0.00;0.00;0.00
69205;PMS7003;56319;48.920;2.332;2023-05-10T03:20:48;1.00;1.00;0.25
69205;PMS7003;56319;48.920;2.332;2023-05-10T03:23:21;0.00;0.00;0.00
69205;PMS7003;56319;48.920;2.332;2023-05-10T03:25:50;0.00;0.00;0.00
69205;PMS7003;56319;48.920;2.332;2023-05-10T03:28:17;0.00;0.00;0.00
69205;PMS7003;56319;48.920;2.332;2023-05-10T03:30:44;0.00;0.00;0.00
69205;PMS7003;56319;48.920;2.332;2023-05-10T03:33:10;0.00;0.00;0.00
69205;PMS7003;56319;48.920;2.332;2023-05-10T03:35:37;0.00;0.00;0.00
69205;PMS7003;56319;48.920;2.332;2023-05-10T03:38:03;0.00;0.00;0.00
69205;PMS7003;56319;48.920;2.332;2023-05-10T03:40:28;0.00;0.00;0.00
69205;PMS7003;56319;48.920;2.332;2023-05-10T03:42:56;0.00;0.00;0.00
69205;PMS7003;56319;48.920;2.332;2023-05-10T03:45:22;0.00;0.00;0.00
69205;PMS7003;56319;48.920;2.332;2023-05-10T03:47:47;1.25;0.00;0.00
69205;PMS7003;56319;48.920;2.332;2023-05-10T03:50:13;0.00;0.00;0.00
69205;PMS7003;56319;48.920;2.332;2023-05-10T03:52:38;1.75;0.50;0.50
69205;PMS7003;56319;48.920;2.332;2023-05-10T03:55:05;0.00;0.00;0.00
69205;PMS7003;56319;48.920;2.332;2023-05-10T03:57:31;0.00;0.00;0.00
69205;PMS7003;56319;48.920;2.332;2023-05-10T03:59:57;0.50;0.00;0.00
69205;PMS7003;56319;48.920;2.332;2023-05-10T04:02:22;1.00;0.00;0.00
69205;PMS7003;56319;48.920;2.332;2023-05-10T04:04:48;0.00;0.00;0.00
69205;PMS7003;56319;48.920;2.332;2023-05-10T04:07:14;0.00;0.00;0.00
69205;PMS7003;56319;48.920;2.332;2023-05-10T04:09:40;0.00;0.00;0.00
69205;PMS7003;56319;48.920;2.332;2023-05-10T04:12:05;0.00;0.00;0.00
69205;PMS7003;56319;48.920;2.332;2023-05-10T04:14:31;0.00;0.00;0.00
69205;PMS7003;56319;48.920;2.332;2023-05-10T04:16:57;0.00;0.00;0.00
69205;PMS7003;56319;48.920;2.332;2023-05-10T04:19:22;0.00;0.00;0.00
69205;PMS7003;56319;48.920;2.332;2023-05-10T04:21:48;0.00;0.00;0.00
69205;PMS7003;56319;48.920;2.332;2023-05-10T04:24:13;0.00;0.00;0.00
69205;PMS7003;56319;48.920;2.332;2023-05-10T04:26:39;0.00;0.00;0.00
69205;PMS7003;56319;48.920;2.332;2023-05-10T04:29:05;0.00;0.00;0.00
69205;PMS7003;56319;48.920;2.332;2023-05-10T04:31:31;0.75;0.75;0.00
69205;PMS7003;56319;48.920;2.332;2023-05-10T04:33:56;0.25;0.00;0.00
69205;PMS7003;56319;48.920;2.332;2023-05-10T04:36:22;0.00;0.00;0.00
69205;PMS7003;56319;48.920;2.332;2023-05-10T04:38:47;0.00;0.00;0.00
69205;PMS7003;56319;48.920;2.332;2023-05-10T04:41:13;0.00;0.00;0.00
69205;PMS7003;56319;48.920;2.332;2023-05-10T04:43:38;0.00;0.00;0.00
69205;PMS7003;56319;48.920;2.332;2023-05-10T04:46:04;0.00;0.00;0.00
69205;PMS7003;56319;48.920;2.332;2023-05-10T04:48:30;0.00;0.00;0.00
69205;PMS7003;56319;48.920;2.332;2023-05-10T04:50:56;0.00;0.00;0.00
69205;PMS7003;56319;48.920;2.332;2023-05-10T04:53:22;0.00;0.00;0.00
69205;PMS7003;56319;48.920;2.332;2023-05-10T04:55:47;0.00;0.00;0.00
69205;PMS7003;56319;48.920;2.332;2023-05-10T04:58:13;0.00;0.00;0.00
69205;PMS7003;56319;48.920;2.332;2023-05-10T05:00:39;0.00;0.00;0.00
69205;PMS7003;56319;48.920;2.332;2023-05-10T05:03:05;0.25;0.00;0.00
69205;PMS7003;56319;48.920;2.332;2023-05-10T05:05:31;0.75;0.00;0.00
69205;PMS7003;56319;48.920;2.332;2023-05-10T05:07:56;0.00;0.00;0.00
69205;PMS7003;56319;48.920;2.332;2023-05-10T05:10:22;0.00;0.00;0.00
69205;PMS7003;56319;48.920;2.332;2023-05-10T05:12:47;0.75;0.00;0.00
69205;PMS7003;56319;48.920;2.332;2023-05-10T05:15:13;0.00;0.00;0.00
69205;PMS7003;56319;48.920;2.332;2023-05-10T05:17:40;0.25;0.00;0.00
69205;PMS7003;56319;48.920;2.332;2023-05-10T05:20:06;0.25;0.25;0.25
69205;PMS7003;56319;48.920;2.332;2023-05-10T05:22:32;0.00;0.00;0.00
69205;PMS7003;56319;48.920;2.332;2023-05-10T05:24:57;0.00;0.00;0.00
69205;PMS7003;56319;48.920;2.332;2023-05-10T05:27:23;0.00;0.00;0.00
69205;PMS7003;56319;48.920;2.332;2023-05-10T05:29:52;0.00;0.00;0.00
69205;PMS7003;56319;48.920;2.332;2023-05-10T05:32:18;0.00;0.00;0.00
69205;PMS7003;56319;48.920;2.332;2023-05-10T05:34:44;0.00;0.00;0.00
69205;PMS7003;56319;48.920;2.332;2023-05-10T05:37:13;0.00;0.00;0.00
69205;PMS7003;56319;48.920;2.332;2023-05-10T05:39:39;0.00;0.00;0.00
69205;PMS7003;56319;48.920;2.332;2023-05-10T05:42:05;0.00;0.00;0.00
69205;PMS7003;56319;48.920;2.332;2023-05-10T05:44:30;0.00;0.00;0.00
69205;PMS7003;56319;48.920;2.332;2023-05-10T05:46:56;0.00;0.00;0.00
69205;PMS7003;56319;48.920;2.332;2023-05-10T05:49:22;0.00;0.00;0.00
69205;PMS7003;56319;48.920;2.332;2023-05-10T05:51:47;0.00;0.00;0.00
69205;PMS7003;56319;48.920;2.332;2023-05-10T05:54:14;0.00;0.00;0.00
69205;PMS7003;56319;48.920;2.332;2023-05-10T05:56:40;0.00;0.00;0.00
69205;PMS7003;56319;48.920;2.332;2023-05-10T05:59:05;0.00;0.00;0.00
69205;PMS7003;56319;48.920;2.332;2023-05-10T06:01:31;0.00;0.00;0.00
69205;PMS7003;56319;48.920;2.332;2023-05-10T06:03:56;0.75;0.50;0.00
69205;PMS7003;56319;48.920;2.332;2023-05-10T06:06:22;0.00;0.00;0.00
69205;PMS7003;56319;48.920;2.332;2023-05-10T06:08:47;0.00;0.00;0.00
69205;PMS7003;56319;48.920;2.332;2023-05-10T06:11:13;0.00;0.00;0.00
69205;PMS7003;56319;48.920;2.332;2023-05-10T06:13:38;0.50;0.50;0.00
69205;PMS7003;56319;48.920;2.332;2023-05-10T06:16:04;0.00;0.00;0.00
69205;PMS7003;56319;48.920;2.332;2023-05-10T06:18:29;0.00;0.00;0.00
69205;PMS7003;56319;48.920;2.332;2023-05-10T06:20:55;0.00;0.00;0.00
69205;PMS7003;56319;48.920;2.332;2023-05-10T06:23:21;0.00;0.00;0.00
69205;PMS7003;56319;48.920;2.332;2023-05-10T06:25:47;1.00;0.00;0.00
69205;PMS7003;56319;48.920;2.332;2023-05-10T06:28:12;0.00;0.00;0.00
69205;PMS7003;56319;48.920;2.332;2023-05-10T06:30:38;1.50;0.00;0.00
69205;PMS7003;56319;48.920;2.332;2023-05-10T06:33:03;0.00;0.00;0.00
69205;PMS7003;56319;48.920;2.332;2023-05-10T06:35:29;0.00;0.00;0.00
69205;PMS7003;56319;48.920;2.332;2023-05-10T06:37:56;0.00;0.00;0.00
69205;PMS7003;56319;48.920;2.332;2023-05-10T06:40:21;1.50;0.50;0.50
69205;PMS7003;56319;48.920;2.332;2023-05-10T06:42:47;0.00;0.00;0.00
69205;PMS7003;56319;48.920;2.332;2023-05-10T06:45:13;0.00;0.00;0.00
69205;PMS7003;56319;48.920;2.332;2023-05-10T06:47:40;0.50;0.50;0.50
69205;PMS7003;56319;48.920;2.332;2023-05-10T06:50:08;0.00;0.00;0.00
69205;PMS7003;56319;48.920;2.332;2023-05-10T06:52:34;2.50;0.25;0.25
69205;PMS7003;56319;48.920;2.332;2023-05-10T06:54:59;0.00;0.00;0.00
69205;PMS7003;56319;48.920;2.332;2023-05-10T06:57:25;1.50;0.00;0.00
69205;PMS7003;56319;48.920;2.332;2023-05-10T06:59:51;0.00;0.00;0.00
69205;PMS7003;56319;48.920;2.332;2023-05-10T07:02:17;1.50;1.00;0.50
69205;PMS7003;56319;48.920;2.332;2023-05-10T07:04:42;0.00;0.00;0.00
69205;PMS7003;56319;48.920;2.332;2023-05-10T07:07:08;1.00;1.00;0.00
69205;PMS7003;56319;48.920;2.332;2023-05-10T07:09:34;0.00;0.00;0.00
69205;PMS7003;56319;48.920;2.332;2023-05-10T07:11:59;0.00;0.00;0.00
69205;PMS7003;56319;48.920;2.332;2023-05-10T07:14:27;0.50;0.00;0.00
69205;PMS7003;56319;48.920;2.332;2023-05-10T07:16:52;0.75;0.75;0.00
69205;PMS7003;56319;48.920;2.332;2023-05-10T07:19:18;1.00;0.75;0.50
69205;PMS7003;56319;48.920;2.332;2023-05-10T07:21:44;0.00;0.00;0.00
69205;PMS7003;56319;48.920;2.332;2023-05-10T07:24:10;0.00;0.00;0.00
69205;PMS7003;56319;48.920;2.332;2023-05-10T07:26:35;0.25;0.25;0.25
69205;PMS7003;56319;48.920;2.332;2023-05-10T07:29:01;0.50;0.50;0.50
69205;PMS7003;56319;48.920;2.332;2023-05-10T07:31:26;0.00;0.00;0.00
69205;PMS7003;56319;48.920;2.332;2023-05-10T07:33:52;0.00;0.00;0.00
69205;PMS7003;56319;48.920;2.332;2023-05-10T07:36:17;1.50;0.00;0.00
69205;PMS7003;56319;48.920;2.332;2023-05-10T07:38:43;0.00;0.00;0.00
69205;PMS7003;56319;48.920;2.332;2023-05-10T07:41:08;1.50;0.25;0.00
69205;PMS7003;56319;48.920;2.332;2023-05-10T07:43:34;0.25;0.25;0.25
69205;PMS7003;56319;48.920;2.332;2023-05-10T07:46:00;1.00;1.00;1.00
69205;PMS7003;56319;48.920;2.332;2023-05-10T07:48:26;0.00;0.00;0.00
69205;PMS7003;56319;48.920;2.332;2023-05-10T07:50:51;1.50;1.00;1.00
69205;PMS7003;56319;48.920;2.332;2023-05-10T07:53:17;0.00;0.00;0.00
69205;PMS7003;56319;48.920;2.332;2023-05-10T07:55:43;1.00;1.00;1.00
69205;PMS7003;56319;48.920;2.332;2023-05-10T07:58:10;0.00;0.00;0.00
69205;PMS7003;56319;48.920;2.332;2023-05-10T08:00:35;0.00;0.00;0.00
69205;PMS7003;56319;48.920;2.332;2023-05-10T08:03:04;1.00;1.00;0.50
69205;PMS7003;56319;48.920;2.332;2023-05-10T08:05:29;0.25;0.25;0.25
69205;PMS7003;56319;48.920;2.332;2023-05-10T08:07:55;1.00;1.00;1.00
69205;PMS7003;56319;48.920;2.332;2023-05-10T08:10:20;0.50;0.50;0.50
69205;PMS7003;56319;48.920;2.332;2023-05-10T08:12:46;3.25;0.00;0.00
69205;PMS7003;56319;48.920;2.332;2023-05-10T08:15:11;0.50;0.25;0.25
69205;PMS7003;56319;48.920;2.332;2023-05-10T08:17:37;1.25;1.00;0.50
69205;PMS7003;56319;48.920;2.332;2023-05-10T08:20:02;1.00;1.00;0.50
69205;PMS7003;56319;48.920;2.332;2023-05-10T08:22:28;2.00;0.00;0.00
69205;PMS7003;56319;48.920;2.332;2023-05-10T08:24:54;1.00;1.00;1.00
69205;PMS7003;56319;48.920;2.332;2023-05-10T08:27:19;1.25;0.50;0.50
69205;PMS7003;56319;48.920;2.332;2023-05-10T08:29:45;0.50;0.50;0.50
69205;PMS7003;56319;48.920;2.332;2023-05-10T08:32:10;0.00;0.00;0.00
69205;PMS7003;56319;48.920;2.332;2023-05-10T08:34:36;0.50;0.50;0.50
69205;PMS7003;56319;48.920;2.332;2023-05-10T08:37:01;1.00;1.00;1.00
69205;PMS7003;56319;48.920;2.332;2023-05-10T08:39:27;1.25;0.25;0.00
69205;PMS7003;56319;48.920;2.332;2023-05-10T08:41:53;2.00;2.00;1.50
69205;PMS7003;56319;48.920;2.332;2023-05-10T08:44:22;2.75;2.75;2.00
69205;PMS7003;56319;48.920;2.332;2023-05-10T08:46:48;2.25;2.25;2.00
69205;PMS7003;56319;48.920;2.332;2023-05-10T08:49:19;2.00;1.75;1.00
69205;PMS7003;56319;48.920;2.332;2023-05-10T08:51:48;2.25;1.50;1.00
69205;PMS7003;56319;48.920;2.332;2023-05-10T08:54:16;2.75;2.00;1.50
69205;PMS7003;56319;48.920;2.332;2023-05-10T08:56:42;2.25;2.25;2.25
69205;PMS7003;56319;48.920;2.332;2023-05-10T08:59:08;3.00;2.50;1.50
69205;PMS7003;56319;48.920;2.332;2023-05-10T09:01:35;2.00;2.00;2.00
69205;PMS7003;56319;48.920;2.332;2023-05-10T09:04:01;4.00;2.75;2.00
69205;PMS7003;56319;48.920;2.332;2023-05-10T09:06:29;2.00;1.50;1.50
69205;PMS7003;56319;48.920;2.332;2023-05-10T09:08:54;5.00;3.75;3.00
69205;PMS7003;56319;48.920;2.332;2023-05-10T09:11:20;3.00;3.00;2.00
69205;PMS7003;56319;48.920;2.332;2023-05-10T09:13:47;3.25;3.25;2.25
69205;PMS7003;56319;48.920;2.332;2023-05-10T09:16:15;2.00;2.00;2.00
69205;PMS7003;56319;48.920;2.332;2023-05-10T09:18:41;2.25;2.25;2.00
69205;PMS7003;56319;48.920;2.332;2023-05-10T09:21:06;5.00;4.50;3.25
69205;PMS7003;56319;48.920;2.332;2023-05-10T09:23:32;2.50;2.50;1.75
69205;PMS7003;56319;48.920;2.332;2023-05-10T09:26:02;2.50;2.50;2.50
69205;PMS7003;56319;48.920;2.332;2023-05-10T09:28:32;3.00;3.00;3.00
69205;PMS7003;56319;48.920;2.332;2023-05-10T09:30:59;3.50;3.50;2.75
69205;PMS7003;56319;48.920;2.332;2023-05-10T09:33:24;2.50;2.50;2.25
69205;PMS7003;56319;48.920;2.332;2023-05-10T09:35:51;3.25;3.25;3.00
69205;PMS7003;56319;48.920;2.332;2023-05-10T09:38:17;3.75;3.00;2.50
69205;PMS7003;56319;48.920;2.332;2023-05-10T09:40:42;4.50;3.00;2.50
69205;PMS7003;56319;48.920;2.332;2023-05-10T09:43:19;3.00;3.00;2.25
69205;PMS7003;56319;48.920;2.332;2023-05-10T09:45:45;4.00;2.50;2.25
69205;PMS7003;56319;48.920;2.332;2023-05-10T09:48:14;3.75;3.75;2.50
69205;PMS7003;56319;48.920;2.332;2023-05-10T09:50:40;3.25;3.25;3.00
69205;PMS7003;56319;48.920;2.332;2023-05-10T09:53:06;3.50;3.50;3.00
69205;PMS7003;56319;48.920;2.332;2023-05-10T09:58:17;5.00;3.25;2.25
69205;PMS7003;56319;48.920;2.332;2023-05-10T10:00:43;3.00;3.00;2.25
69205;PMS7003;56319;48.920;2.332;2023-05-10T10:05:56;4.00;3.75;3.00
69205;PMS7003;56319;48.920;2.332;2023-05-10T10:08:21;7.00;3.75;2.50
69205;PMS7003;56319;48.920;2.332;2023-05-10T10:10:47;4.00;3.25;3.00
69205;PMS7003;56319;48.920;2.332;2023-05-10T10:13:13;4.00;4.00;3.25
69205;PMS7003;56319;48.920;2.332;2023-05-10T10:15:40;2.75;2.75;2.00
69205;PMS7003;56319;48.920;2.332;2023-05-10T10:18:07;6.00;5.00;3.75
69205;PMS7003;56319;48.920;2.332;2023-05-10T10:20:36;6.50;5.25;3.50
69205;PMS7003;56319;48.920;2.332;2023-05-10T10:23:02;6.00;4.00;3.00
69205;PMS7003;56319;48.920;2.332;2023-05-10T10:25:28;5.00;3.75;2.75
69205;PMS7003;56319;48.920;2.332;2023-05-10T10:27:59;3.50;3.50;2.50
69205;PMS7003;56319;48.920;2.332;2023-05-10T10:30:38;3.25;3.25;2.50
69205;PMS7003;56319;48.920;2.332;2023-05-10T10:36:02;4.25;4.00;3.00
69205;PMS7003;56319;48.920;2.332;2023-05-10T10:41:28;8.25;5.25;4.00
69205;PMS7003;56319;48.920;2.332;2023-05-10T10:49:36;5.00;5.00;4.00
69205;PMS7003;56319;48.920;2.332;2023-05-10T10:54:59;6.50;4.75;3.25
69205;PMS7003;56319;48.920;2.332;2023-05-10T11:03:04;4.00;4.00;3.00
69205;PMS7003;56319;48.920;2.332;2023-05-10T11:05:35;4.25;4.25;3.25
69205;PMS7003;56319;48.920;2.332;2023-05-10T11:11:08;5.75;4.50;3.75
69205;PMS7003;56319;48.920;2.332;2023-05-10T11:16:27;6.25;5.00;3.00
69205;PMS7003;56319;48.920;2.332;2023-05-10T11:18:56;6.75;5.25;4.00
69205;PMS7003;56319;48.920;2.332;2023-05-10T11:21:27;4.50;4.25;3.00
69205;PMS7003;56319;48.920;2.332;2023-05-10T11:23:54;6.50;5.75;5.00
69205;PMS7003;56319;48.920;2.332;2023-05-10T11:26:22;8.75;5.50;4.00
69205;PMS7003;56319;48.920;2.332;2023-05-10T11:28:51;6.50;4.25;3.25
69205;PMS7003;56319;48.920;2.332;2023-05-10T11:31:20;7.00;5.50;3.00
69205;PMS7003;56319;48.920;2.332;2023-05-10T11:33:47;4.50;4.50;2.75
69205;PMS7003;56319;48.920;2.332;2023-05-10T11:36:15;4.25;4.25;4.00
69205;PMS7003;56319;48.920;2.332;2023-05-10T11:38:42;4.25;3.00;2.75
69205;PMS7003;56319;48.920;2.332;2023-05-10T11:41:08;6.25;6.25;4.50
69205;PMS7003;56319;48.920;2.332;2023-05-10T11:43:35;5.00;4.00;3.00
69205;PMS7003;56319;48.920;2.332;2023-05-10T11:46:03;4.50;4.00;2.50
69205;PMS7003;56319;48.920;2.332;2023-05-10T11:48:31;5.50;5.25;3.50
69205;PMS7003;56319;48.920;2.332;2023-05-10T11:50:56;4.75;4.75;4.00
69205;PMS7003;56319;48.920;2.332;2023-05-10T11:53:23;5.00;5.00;3.50
69205;PMS7003;56319;48.920;2.332;2023-05-10T11:55:50;6.00;4.75;3.75
69205;PMS7003;56319;48.920;2.332;2023-05-10T11:58:17;4.75;4.75;3.00
69205;PMS7003;56319;48.920;2.332;2023-05-10T12:00:43;7.00;4.00;3.00
69205;PMS7003;56319;48.920;2.332;2023-05-10T12:03:13;5.25;4.75;3.25
69205;PMS7003;56319;48.920;2.332;2023-05-10T12:05:39;5.00;4.75;3.25
69205;PMS7003;56319;48.920;2.332;2023-05-10T12:10:53;4.00;2.00;1.00
69205;PMS7003;56319;48.920;2.332;2023-05-10T12:13:30;3.50;3.50;2.50
69205;PMS7003;56319;48.920;2.332;2023-05-10T12:15:57;4.25;4.25;3.00
69205;PMS7003;56319;48.920;2.332;2023-05-10T12:18:23;4.50;4.50;3.75
69205;PMS7003;56319;48.920;2.332;2023-05-10T12:20:51;6.00;4.50;3.75
69205;PMS7003;56319;48.920;2.332;2023-05-10T12:23:18;6.00;4.25;4.00
69205;PMS7003;56319;48.920;2.332;2023-05-10T12:25:45;4.00;4.00;3.00
69205;PMS7003;56319;48.920;2.332;2023-05-10T12:28:10;5.75;4.75;3.75
69205;PMS7003;56319;48.920;2.332;2023-05-10T12:30:36;4.75;3.75;3.50
69205;PMS7003;56319;48.920;2.332;2023-05-10T12:33:06;4.75;4.50;4.00
69205;PMS7003;56319;48.920;2.332;2023-05-10T12:38:36;4.50;3.75;3.00
69205;PMS7003;56319;48.920;2.332;2023-05-10T12:41:05;5.00;5.00;3.00
69205;PMS7003;56319;48.920;2.332;2023-05-10T12:43:32;5.25;2.25;1.25
69205;PMS7003;56319;48.920;2.332;2023-05-10T12:45:58;5.50;4.75;4.00
69205;PMS7003;56319;48.920;2.332;2023-05-10T12:48:30;7.00;6.50;4.00
69205;PMS7003;56319;48.920;2.332;2023-05-10T12:50:56;4.50;4.25;3.25
69205;PMS7003;56319;48.920;2.332;2023-05-10T12:53:21;4.00;3.75;3.00
69205;PMS7003;56319;48.920;2.332;2023-05-10T12:55:47;6.00;4.50;3.00
69205;PMS7003;56319;48.920;2.332;2023-05-10T12:58:12;4.50;3.00;3.00
69205;PMS7003;56319;48.920;2.332;2023-05-10T13:00:38;6.00;4.50;3.75
69205;PMS7003;56319;48.920;2.332;2023-05-10T13:03:04;4.50;4.00;3.00
69205;PMS7003;56319;48.920;2.332;2023-05-10T13:05:31;2.25;1.00;1.00
69205;PMS7003;56319;48.920;2.332;2023-05-10T13:07:58;4.75;3.50;3.00
69205;PMS7003;56319;48.920;2.332;2023-05-10T13:10:23;6.00;5.00;4.00
69205;PMS7003;56319;48.920;2.332;2023-05-10T13:12:50;9.00;5.00;4.00
69205;PMS7003;56319;48.920;2.332;2023-05-10T13:15:15;4.50;4.50;4.00
69205;PMS7003;56319;48.920;2.332;2023-05-10T13:17:41;4.75;4.75;3.25
69205;PMS7003;56319;48.920;2.332;2023-05-10T13:20:07;5.00;5.00;4.50
69205;PMS7003;56319;48.920;2.332;2023-05-10T13:22:34;3.25;3.25;3.00
69205;PMS7003;56319;48.920;2.332;2023-05-10T13:25:00;6.25;4.75;3.75
69205;PMS7003;56319;48.920;2.332;2023-05-10T13:27:27;3.50;3.50;3.50
69205;PMS7003;56319;48.920;2.332;2023-05-10T13:29:53;7.50;5.25;4.00
69205;PMS7003;56319;48.920;2.332;2023-05-10T13:32:18;3.75;3.25;2.50
69205;PMS7003;56319;48.920;2.332;2023-05-10T13:34:43;5.00;5.00;3.00
69205;PMS7003;56319;48.920;2.332;2023-05-10T13:37:09;5.75;5.00;3.25
69205;PMS7003;56319;48.920;2.332;2023-05-10T13:39:34;5.00;4.00;3.00
69205;PMS7003;56319;48.920;2.332;2023-05-10T13:42:02;3.75;3.75;3.00
69205;PMS7003;56319;48.920;2.332;2023-05-10T13:44:28;3.50;3.50;3.00
69205;PMS7003;56319;48.920;2.332;2023-05-10T13:46:54;3.00;3.00;3.00
69205;PMS7003;56319;48.920;2.332;2023-05-10T13:49:20;5.00;4.00;3.25
69205;PMS7003;56319;48.920;2.332;2023-05-10T13:51:47;3.00;2.00;2.00
69205;PMS7003;56319;48.920;2.332;2023-05-10T13:54:12;3.00;3.00;2.25
69205;PMS7003;56319;48.920;2.332;2023-05-10T13:56:38;7.00;5.00;4.00
69205;PMS7003;56319;48.920;2.332;2023-05-10T13:59:05;3.00;3.00;2.00
69205;PMS7003;56319;48.920;2.332;2023-05-10T14:01:31;5.00;4.00;3.00
69205;PMS7003;56319;48.920;2.332;2023-05-10T14:03:56;4.75;4.00;3.00
69205;PMS7003;56319;48.920;2.332;2023-05-10T14:06:22;5.25;3.75;3.00
69205;PMS7003;56319;48.920;2.332;2023-05-10T14:08:47;2.75;2.75;2.50
69205;PMS7003;56319;48.920;2.332;2023-05-10T14:11:14;4.75;3.75;3.25
69205;PMS7003;56319;48.920;2.332;2023-05-10T14:13:39;3.50;3.50;3.00
69205;PMS7003;56319;48.920;2.332;2023-05-10T14:16:05;3.50;3.50;2.75
69205;PMS7003;56319;48.920;2.332;2023-05-10T14:18:30;4.75;4.50;3.50
69205;PMS7003;56319;48.920;2.332;2023-05-10T14:20:56;4.00;3.75;3.00
69205;PMS7003;56319;48.920;2.332;2023-05-10T14:23:22;5.50;5.00;4.00
69205;PMS7003;56319;48.920;2.332;2023-05-10T14:25:50;4.75;4.00;3.50
69205;PMS7003;56319;48.920;2.332;2023-05-10T14:28:17;2.75;2.75;2.00
69205;PMS7003;56319;48.920;2.332;2023-05-10T14:30:43;3.25;3.25;3.25
69205;PMS7003;56319;48.920;2.332;2023-05-10T14:33:09;6.00;4.00;3.75
69205;PMS7003;56319;48.920;2.332;2023-05-10T14:35:35;4.00;3.75;3.00
69205;PMS7003;56319;48.920;2.332;2023-05-10T14:38:02;2.50;2.50;2.50
69205;PMS7003;56319;48.920;2.332;2023-05-10T14:40:28;4.25;4.00;3.00
69205;PMS7003;56319;48.920;2.332;2023-05-10T14:42:54;4.00;2.00;2.00
69205;PMS7003;56319;48.920;2.332;2023-05-10T14:45:20;4.75;3.00;3.00
69205;PMS7003;56319;48.920;2.332;2023-05-10T14:47:46;3.25;2.25;2.25
69205;PMS7003;56319;48.920;2.332;2023-05-10T14:50:11;4.00;3.00;2.00
69205;PMS7003;56319;48.920;2.332;2023-05-10T14:52:37;3.75;3.00;3.00
69205;PMS7003;56319;48.920;2.332;2023-05-10T14:55:02;3.50;3.50;2.50
69205;PMS7003;56319;48.920;2.332;2023-05-10T14:57:28;2.00;2.00;2.00
69205;PMS7003;56319;48.920;2.332;2023-05-10T14:59:55;4.00;2.25;2.25
69205;PMS7003;56319;48.920;2.332;2023-05-10T15:04:47;3.00;2.50;2.00
69205;PMS7003;56319;48.920;2.332;2023-05-10T15:07:12;5.25;3.25;2.75